sensor_id;sensor_type;location;lat;lon;timestamp;noise_LAeq;noise_LA_min;noise_LA_max;noise_LA01;noise_LA95
66459;Laerm;70605;52.550;4.730;2023-06-14T00:00:07;43.87;42.51;48.01;;
66459;Laerm;70605;52.550;4.730;2023-06-14T00:00:18;43.39;42.23;46.70;;
66459;Laerm;70605;52.550;4.730;2023-06-14T00:00:28;43.30;42.26;45.23;;
66459;Laerm;70605;52.550;4.730;2023-06-14T00:00:38;43.41;42.12;44.72;;
66459;Laerm;70605;52.550;4.730;2023-06-14T00:00:52;44.74;42.44;54.72;;
66459;Laerm;70605;52.550;4.730;2023-06-14T00:01:03;43.66;42.48;47.51;;
66459;Laerm;70605;52.550;4.730;2023-06-14T00:01:16;43.44;42.36;47.21;;
66459;Laerm;70605;52.550;4.730;2023-06-14T00:01:27;43.30;42.41;44.28;;
66459;Laerm;70605;52.550;4.730;2023-06-14T00:01:37;43.31;42.27;44.06;;
66459;Laerm;70605;52.550;4.730;2023-06-14T00:01:48;43.29;42.26;44.14;;
66459;Laerm;70605;52.550;4.730;2023-06-14T00:01:58;43.31;42.44;44.56;;
66459;Laerm;70605;52.550;4.730;2023-06-14T00:02:09;43.35;42.36;44.61;;
66459;Laerm;70605;52.550;4.730;2023-06-14T00:02:19;43.28;42.23;44.12;;
66459;Laerm;70605;52.550;4.730;2023-06-14T00:02:29;43.57;42.37;45.46;;
66459;Laerm;70605;52.550;4.730;2023-06-14T00:02:39;43.46;42.60;44.91;;
66459;Laerm;70605;52.550;4.730;2023-06-14T00:02:50;43.41;42.41;44.39;;
66459;Laerm;70605;52.550;4.730;2023-06-14T00:03:00;43.28;42.42;44.15;;
66459;Laerm;70605;52.550;4.730;2023-06-14T00:03:10;43.28;42.22;44.44;;
66459;Laerm;70605;52.550;4.730;2023-06-14T00:03:21;43.45;42.42;46.88;;
66459;Laerm;70605;52.550;4.730;2023-06-14T00:03:32;43.36;42.48;44.36;;
66459;Laerm;70605;52.550;4.730;2023-06-14T00:03:43;43.27;42.38;43.97;;
66459;Laerm;70605;52.550;4.730;2023-06-14T00:03:53;43.31;42.42;46.23;;
66459;Laerm;70605;52.550;4.730;2023-06-14T00:04:04;43.48;42.44;45.79;;
66459;Laerm;70605;52.550;4.730;2023-06-14T00:04:18;43.49;42.36;45.04;;
66459;Laerm;70605;52.550;4.730;2023-06-14T00:04:30;43.48;42.54;44.99;;
66459;Laerm;70605;52.550;4.730;2023-06-14T00:04:41;43.33;42.15;44.72;;
66459;Laerm;70605;52.550;4.730;2023-06-14T00:04:51;43.92;42.48;47.52;;
66459;Laerm;70605;52.550;4.730;2023-06-14T00:05:03;44.40;42.49;48.34;;
66459;Laerm;70605;52.550;4.730;2023-06-14T00:05:14;43.52;42.49;47.03;;
66459;Laerm;70605;52.550;4.730;2023-06-14T00:05:24;43.29;42.34;44.19;;
66459;Laerm;70605;52.550;4.730;2023-06-14T00:05:35;43.36;42.39;44.33;;
66459;Laerm;70605;52.550;4.730;2023-06-14T00:05:51;43.36;42.35;45.08;;
66459;Laerm;70605;52.550;4.730;2023-06-14T00:06:01;43.34;42.31;44.71;;
66459;Laerm;70605;52.550;4.730;2023-06-14T00:06:11;43.52;42.47;47.20;;
66459;Laerm;70605;52.550;4.730;2023-06-14T00:06:21;44.16;42.68;47.04;;
66459;Laerm;70605;52.550;4.730;2023-06-14T00:06:34;43.67;42.54;47.54;;
66459;Laerm;70605;52.550;4.730;2023-06-14T00:06:44;43.71;42.38;45.20;;
66459;Laerm;70605;52.550;4.730;2023-06-14T00:07:01;43.63;42.21;45.76;;
66459;Laerm;70605;52.550;4.730;2023-06-14T00:07:11;43.40;42.46;45.35;;
66459;Laerm;70605;52.550;4.730;2023-06-14T00:07:33;43.67;42.49;47.97;;
66459;Laerm;70605;52.550;4.730;2023-06-14T00:07:43;43.49;42.37;47.15;;
66459;Laerm;70605;52.550;4.730;2023-06-14T00:07:54;43.50;42.29;46.02;;
66459;Laerm;70605;52.550;4.730;2023-06-14T00:08:04;43.30;42.56;44.20;;
66459;Laerm;70605;52.550;4.730;2023-06-14T00:08:17;43.31;42.38;44.80;;
66459;Laerm;70605;52.550;4.730;2023-06-14T00:08:28;43.32;42.41;44.27;;
66459;Laerm;70605;52.550;4.730;2023-06-14T00:08:39;43.36;42.46;44.20;;
66459;Laerm;70605;52.550;4.730;2023-06-14T00:08:50;43.41;42.18;45.39;;
66459;Laerm;70605;52.550;4.730;2023-06-14T00:09:01;43.30;42.45;44.21;;
66459;Laerm;70605;52.550;4.730;2023-06-14T00:09:11;43.36;42.37;45.00;;
66459;Laerm;70605;52.550;4.730;2023-06-14T00:09:22;43.50;42.35;45.06;;
66459;Laerm;70605;52.550;4.730;2023-06-14T00:09:33;43.56;42.45;44.93;;
66459;Laerm;70605;52.550;4.730;2023-06-14T00:09:43;43.36;42.53;44.68;;
66459;Laerm;70605;52.550;4.730;2023-06-14T00:09:53;43.43;42.46;45.25;;
66459;Laerm;70605;52.550;4.730;2023-06-14T00:10:04;43.76;42.36;46.75;;
66459;Laerm;70605;52.550;4.730;2023-06-14T00:10:15;43.91;42.46;47.34;;
66459;Laerm;70605;52.550;4.730;2023-06-14T00:10:25;43.42;42.33;46.46;;
66459;Laerm;70605;52.550;4.730;2023-06-14T00:10:36;43.33;42.24;44.43;;
66459;Laerm;70605;52.550;4.730;2023-06-14T00:10:47;43.62;42.59;44.91;;
66459;Laerm;70605;52.550;4.730;2023-06-14T00:10:57;43.54;42.56;44.47;;
66459;Laerm;70605;52.550;4.730;2023-06-14T00:11:07;43.50;42.53;44.49;;
66459;Laerm;70605;52.550;4.730;2023-06-14T00:11:18;43.46;42.31;44.79;;
66459;Laerm;70605;52.550;4.730;2023-06-14T00:11:28;43.31;42.54;44.28;;
66459;Laerm;70605;52.550;4.730;2023-06-14T00:11:42;43.27;42.35;44.26;;
66459;Laerm;70605;52.550;4.730;2023-06-14T00:11:53;43.39;42.46;52.10;;
66459;Laerm;70605;52.550;4.730;2023-06-14T00:12:03;43.52;42.46;47.21;;
66459;Laerm;70605;52.550;4.730;2023-06-14T00:12:13;43.35;42.34;44.39;;
66459;Laerm;70605;52.550;4.730;2023-06-14T00:12:23;43.29;42.28;44.23;;
66459;Laerm;70605;52.550;4.730;2023-06-14T00:12:34;43.42;42.37;45.14;;
66459;Laerm;70605;52.550;4.730;2023-06-14T00:12:45;43.38;42.49;45.10;;
66459;Laerm;70605;52.550;4.730;2023-06-14T00:12:55;43.17;42.27;44.09;;
66459;Laerm;70605;52.550;4.730;2023-06-14T00:13:05;43.26;42.32;44.00;;
66459;Laerm;70605;52.550;4.730;2023-06-14T00:13:17;43.34;42.49;44.95;;
66459;Laerm;70605;52.550;4.730;2023-06-14T00:13:27;43.25;42.12;44.90;;
66459;Laerm;70605;52.550;4.730;2023-06-14T00:13:38;43.31;42.40;45.75;;
66459;Laerm;70605;52.550;4.730;2023-06-14T00:13:48;43.44;42.45;45.04;;
66459;Laerm;70605;52.550;4.730;2023-06-14T00:13:58;43.48;41.96;44.71;;
66459;Laerm;70605;52.550;4.730;2023-06-14T00:14:08;43.42;42.42;44.53;;
66459;Laerm;70605;52.550;4.730;2023-06-14T00:14:19;43.34;42.36;44.77;;
66459;Laerm;70605;52.550;4.730;2023-06-14T00:14:29;43.19;42.22;44.62;;
66459;Laerm;70605;52.550;4.730;2023-06-14T00:14:40;43.25;42.38;47.19;;
66459;Laerm;70605;52.550;4.730;2023-06-14T00:14:50;43.26;42.38;44.04;;
66459;Laerm;70605;52.550;4.730;2023-06-14T00:15:00;43.22;42.05;44.19;;
66459;Laerm;70605;52.550;4.730;2023-06-14T00:15:13;44.04;42.31;49.27;;
66459;Laerm;70605;52.550;4.730;2023-06-14T00:15:23;44.05;42.49;52.81;;
66459;Laerm;70605;52.550;4.730;2023-06-14T00:15:34;44.15;42.48;52.14;;
66459;Laerm;70605;52.550;4.730;2023-06-14T00:15:45;43.38;42.51;44.95;;
66459;Laerm;70605;52.550;4.730;2023-06-14T00:15:56;43.37;42.33;45.29;;
66459;Laerm;70605;52.550;4.730;2023-06-14T00:16:07;43.51;41.94;49.37;;
66459;Laerm;70605;52.550;4.730;2023-06-14T00:16:18;43.29;42.29;44.61;;
66459;Laerm;70605;52.550;4.730;2023-06-14T00:16:29;43.29;42.16;44.33;;
66459;Laerm;70605;52.550;4.730;2023-06-14T00:16:40;43.29;42.26;44.84;;
66459;Laerm;70605;52.550;4.730;2023-06-14T00:16:52;43.47;42.61;44.50;;
66459;Laerm;70605;52.550;4.730;2023-06-14T00:17:02;43.50;42.33;45.08;;
66459;Laerm;70605;52.550;4.730;2023-06-14T00:17:13;43.47;42.43;45.85;;
66459;Laerm;70605;52.550;4.730;2023-06-14T00:17:26;43.38;42.29;45.25;;
66459;Laerm;70605;52.550;4.730;2023-06-14T00:17:40;43.52;42.40;45.45;;
66459;Laerm;70605;52.550;4.730;2023-06-14T00:17:50;43.21;42.26;44.20;;
66459;Laerm;70605;52.550;4.730;2023-06-14T00:18:01;43.20;42.35;44.04;;
66459;Laerm;70605;52.550;4.730;2023-06-14T00:18:11;43.44;42.34;47.70;;
66459;Laerm;70605;52.550;4.730;2023-06-14T00:18:22;43.55;42.38;49.10;;
66459;Laerm;70605;52.550;4.730;2023-06-14T00:18:39;43.23;42.22;44.09;;
66459;Laerm;70605;52.550;4.730;2023-06-14T00:18:49;43.28;42.38;44.24;;
66459;Laerm;70605;52.550;4.730;2023-06-14T00:19:01;43.20;42.29;43.97;;
66459;Laerm;70605;52.550;4.730;2023-06-14T00:19:13;43.38;42.34;46.77;;
66459;Laerm;70605;52.550;4.730;2023-06-14T00:19:24;43.38;42.36;46.10;;
66459;Laerm;70605;52.550;4.730;2023-06-14T00:19:35;44.08;42.46;50.44;;
66459;Laerm;70605;52.550;4.730;2023-06-14T00:19:46;43.40;42.48;46.10;;
66459;Laerm;70605;52.550;4.730;2023-06-14T00:19:57;43.29;42.05;45.49;;
66459;Laerm;70605;52.550;4.730;2023-06-14T00:20:08;43.17;42.20;44.14;;
66459;Laerm;70605;52.550;4.730;2023-06-14T00:20:19;43.20;42.38;44.13;;
66459;Laerm;70605;52.550;4.730;2023-06-14T00:20:30;43.31;42.44;44.48;;
66459;Laerm;70605;52.550;4.730;2023-06-14T00:20:42;43.36;42.41;44.49;;
66459;Laerm;70605;52.550;4.730;2023-06-14T00:20:53;43.21;42.22;44.20;;
66459;Laerm;70605;52.550;4.730;2023-06-14T00:21:03;43.32;42.43;44.45;;
66459;Laerm;70605;52.550;4.730;2023-06-14T00:21:14;43.31;42.26;44.31;;
66459;Laerm;70605;52.550;4.730;2023-06-14T00:21:24;43.29;42.14;44.24;;
66459;Laerm;70605;52.550;4.730;2023-06-14T00:21:34;43.39;42.35;46.48;;
66459;Laerm;70605;52.550;4.730;2023-06-14T00:21:45;43.28;42.26;47.00;;
66459;Laerm;70605;52.550;4.730;2023-06-14T00:21:56;43.46;42.57;45.78;;
66459;Laerm;70605;52.550;4.730;2023-06-14T00:22:07;43.40;42.14;45.94;;
66459;Laerm;70605;52.550;4.730;2023-06-14T00:22:17;43.23;42.23;44.31;;
66459;Laerm;70605;52.550;4.730;2023-06-14T00:22:27;43.19;42.32;44.21;;
66459;Laerm;70605;52.550;4.730;2023-06-14T00:22:41;43.26;42.24;44.44;;
66459;Laerm;70605;52.550;4.730;2023-06-14T00:22:51;43.23;42.39;44.32;;
66459;Laerm;70605;52.550;4.730;2023-06-14T00:23:02;43.23;42.13;44.34;;
66459;Laerm;70605;52.550;4.730;2023-06-14T00:23:12;43.30;42.40;44.51;;
66459;Laerm;70605;52.550;4.730;2023-06-14T00:23:22;43.36;42.47;44.52;;
66459;Laerm;70605;52.550;4.730;2023-06-14T00:23:33;43.36;42.21;45.10;;
66459;Laerm;70605;52.550;4.730;2023-06-14T00:23:43;43.38;42.36;45.31;;
66459;Laerm;70605;52.550;4.730;2023-06-14T00:23:53;43.33;42.43;44.89;;
66459;Laerm;70605;52.550;4.730;2023-06-14T00:24:04;43.20;42.36;44.87;;
66459;Laerm;70605;52.550;4.730;2023-06-14T00:24:14;43.18;42.30;45.67;;
66459;Laerm;70605;52.550;4.730;2023-06-14T00:24:24;43.19;42.11;45.53;;
66459;Laerm;70605;52.550;4.730;2023-06-14T00:24:35;43.20;42.35;44.12;;
66459;Laerm;70605;52.550;4.730;2023-06-14T00:24:45;43.20;42.05;44.15;;
66459;Laerm;70605;52.550;4.730;2023-06-14T00:24:55;43.25;42.30;44.18;;
66459;Laerm;70605;52.550;4.730;2023-06-14T00:25:06;43.27;42.27;44.28;;
66459;Laerm;70605;52.550;4.730;2023-06-14T00:25:16;43.29;42.25;44.00;;
66459;Laerm;70605;52.550;4.730;2023-06-14T00:25:26;43.19;42.18;44.14;;
66459;Laerm;70605;52.550;4.730;2023-06-14T00:25:37;43.31;42.19;44.26;;
66459;Laerm;70605;52.550;4.730;2023-06-14T00:25:47;43.37;42.40;45.68;;
66459;Laerm;70605;52.550;4.730;2023-06-14T00:25:57;43.41;42.32;44.72;;
66459;Laerm;70605;52.550;4.730;2023-06-14T00:26:08;43.39;42.24;46.24;;
66459;Laerm;70605;52.550;4.730;2023-06-14T00:26:18;43.32;42.28;44.22;;
66459;Laerm;70605;52.550;4.730;2023-06-14T00:26:28;43.29;42.26;44.15;;
66459;Laerm;70605;52.550;4.730;2023-06-14T00:26:38;43.23;41.92;44.30;;
66459;Laerm;70605;52.550;4.730;2023-06-14T00:26:49;43.52;42.29;45.87;;
66459;Laerm;70605;52.550;4.730;2023-06-14T00:26:59;43.22;42.36;47.07;;
66459;Laerm;70605;52.550;4.730;2023-06-14T00:27:09;43.18;42.12;43.91;;
66459;Laerm;70605;52.550;4.730;2023-06-14T00:27:20;43.19;42.32;44.37;;
66459;Laerm;70605;52.550;4.730;2023-06-14T00:27:30;43.12;42.20;44.33;;
66459;Laerm;70605;52.550;4.730;2023-06-14T00:27:40;43.22;42.27;46.85;;
66459;Laerm;70605;52.550;4.730;2023-06-14T00:27:51;43.31;42.37;44.96;;
66459;Laerm;70605;52.550;4.730;2023-06-14T00:28:01;43.27;42.16;46.29;;
66459;Laerm;70605;52.550;4.730;2023-06-14T00:28:11;43.27;42.45;44.35;;
66459;Laerm;70605;52.550;4.730;2023-06-14T00:28:22;43.42;42.23;44.82;;
66459;Laerm;70605;52.550;4.730;2023-06-14T00:28:32;43.17;42.17;44.02;;
66459;Laerm;70605;52.550;4.730;2023-06-14T00:28:42;43.12;42.28;43.94;;
66459;Laerm;70605;52.550;4.730;2023-06-14T00:28:53;43.22;42.32;44.29;;
66459;Laerm;70605;52.550;4.730;2023-06-14T00:29:04;43.17;42.31;44.24;;
66459;Laerm;70605;52.550;4.730;2023-06-14T00:29:14;43.30;42.35;44.85;;
66459;Laerm;70605;52.550;4.730;2023-06-14T00:29:24;43.28;42.35;44.21;;
66459;Laerm;70605;52.550;4.730;2023-06-14T00:29:34;43.36;42.55;44.48;;
66459;Laerm;70605;52.550;4.730;2023-06-14T00:29:45;43.23;42.27;44.75;;
66459;Laerm;70605;52.550;4.730;2023-06-14T00:29:55;43.22;42.19;44.20;;
66459;Laerm;70605;52.550;4.730;2023-06-14T00:30:07;43.40;42.09;47.69;;
66459;Laerm;70605;52.550;4.730;2023-06-14T00:30:17;44.11;42.47;51.25;;
66459;Laerm;70605;52.550;4.730;2023-06-14T00:30:27;43.52;42.49;48.02;;
66459;Laerm;70605;52.550;4.730;2023-06-14T00:30:40;44.01;42.28;48.94;;
66459;Laerm;70605;52.550;4.730;2023-06-14T00:30:50;43.57;42.33;46.45;;
66459;Laerm;70605;52.550;4.730;2023-06-14T00:31:01;43.32;42.33;44.34;;
66459;Laerm;70605;52.550;4.730;2023-06-14T00:31:11;43.28;42.38;44.55;;
66459;Laerm;70605;52.550;4.730;2023-06-14T00:31:21;43.29;42.32;44.77;;
66459;Laerm;70605;52.550;4.730;2023-06-14T00:31:31;43.32;42.41;44.62;;
66459;Laerm;70605;52.550;4.730;2023-06-14T00:31:42;43.34;42.23;44.73;;
66459;Laerm;70605;52.550;4.730;2023-06-14T00:31:52;43.14;42.29;44.06;;
66459;Laerm;70605;52.550;4.730;2023-06-14T00:32:02;43.09;42.07;44.11;;
66459;Laerm;70605;52.550;4.730;2023-06-14T00:32:13;43.14;41.80;43.93;;
66459;Laerm;70605;52.550;4.730;2023-06-14T00:32:23;43.18;42.44;43.90;;
66459;Laerm;70605;52.550;4.730;2023-06-14T00:32:35;43.19;42.41;44.15;;
66459;Laerm;70605;52.550;4.730;2023-06-14T00:32:46;43.22;42.12;45.08;;
66459;Laerm;70605;52.550;4.730;2023-06-14T00:32:56;43.17;42.33;44.04;;
66459;Laerm;70605;52.550;4.730;2023-06-14T00:33:07;43.35;42.26;46.58;;
66459;Laerm;70605;52.550;4.730;2023-06-14T00:33:17;43.22;42.31;44.42;;
66459;Laerm;70605;52.550;4.730;2023-06-14T00:33:28;43.15;42.27;44.03;;
66459;Laerm;70605;52.550;4.730;2023-06-14T00:33:38;43.22;42.35;44.78;;
66459;Laerm;70605;52.550;4.730;2023-06-14T00:33:48;43.14;42.25;44.04;;
66459;Laerm;70605;52.550;4.730;2023-06-14T00:33:58;43.19;42.27;43.96;;
66459;Laerm;70605;52.550;4.730;2023-06-14T00:34:09;43.12;41.54;44.20;;
66459;Laerm;70605;52.550;4.730;2023-06-14T00:34:19;43.20;42.35;44.08;;
66459;Laerm;70605;52.550;4.730;2023-06-14T00:34:29;43.16;42.27;44.09;;
66459;Laerm;70605;52.550;4.730;2023-06-14T00:34:40;43.32;42.50;44.72;;
66459;Laerm;70605;52.550;4.730;2023-06-14T00:34:50;43.30;42.26;44.35;;
66459;Laerm;70605;52.550;4.730;2023-06-14T00:35:00;43.43;42.40;44.89;;
66459;Laerm;70605;52.550;4.730;2023-06-14T00:35:11;43.27;42.54;44.27;;
66459;Laerm;70605;52.550;4.730;2023-06-14T00:35:21;43.31;42.37;44.56;;
66459;Laerm;70605;52.550;4.730;2023-06-14T00:35:31;43.29;42.34;44.22;;
66459;Laerm;70605;52.550;4.730;2023-06-14T00:35:42;43.24;42.15;44.00;;
66459;Laerm;70605;52.550;4.730;2023-06-14T00:35:52;43.20;42.25;44.01;;
66459;Laerm;70605;52.550;4.730;2023-06-14T00:36:05;43.25;42.22;44.04;;
66459;Laerm;70605;52.550;4.730;2023-06-14T00:36:15;43.34;42.33;45.98;;
66459;Laerm;70605;52.550;4.730;2023-06-14T00:36:25;43.15;42.19;44.11;;
66459;Laerm;70605;52.550;4.730;2023-06-14T00:36:36;43.17;42.28;43.89;;
66459;Laerm;70605;52.550;4.730;2023-06-14T00:36:46;43.17;42.11;44.14;;
66459;Laerm;70605;52.550;4.730;2023-06-14T00:36:56;43.21;42.11;44.27;;
66459;Laerm;70605;52.550;4.730;2023-06-14T00:37:06;43.19;42.21;44.32;;
66459;Laerm;70605;52.550;4.730;2023-06-14T00:37:17;43.30;42.10;44.64;;
66459;Laerm;70605;52.550;4.730;2023-06-14T00:37:27;43.30;42.40;44.35;;
66459;Laerm;70605;52.550;4.730;2023-06-14T00:37:37;43.27;42.33;44.59;;
66459;Laerm;70605;52.550;4.730;2023-06-14T00:37:48;43.35;42.23;44.83;;
66459;Laerm;70605;52.550;4.730;2023-06-14T00:37:58;43.31;42.28;44.39;;
66459;Laerm;70605;52.550;4.730;2023-06-14T00:38:09;43.24;42.39;44.30;;
66459;Laerm;70605;52.550;4.730;2023-06-14T00:38:20;43.23;42.35;44.49;;
66459;Laerm;70605;52.550;4.730;2023-06-14T00:38:30;43.33;42.07;44.53;;
66459;Laerm;70605;52.550;4.730;2023-06-14T00:38:41;43.53;42.28;45.25;;
66459;Laerm;70605;52.550;4.730;2023-06-14T00:38:51;43.52;42.33;45.30;;
66459;Laerm;70605;52.550;4.730;2023-06-14T00:39:01;43.24;42.39;44.19;;
66459;Laerm;70605;52.550;4.730;2023-06-14T00:39:13;43.28;42.36;44.44;;
66459;Laerm;70605;52.550;4.730;2023-06-14T00:39:24;43.36;42.48;44.49;;
66459;Laerm;70605;52.550;4.730;2023-06-14T00:39:34;43.37;42.53;44.74;;
66459;Laerm;70605;52.550;4.730;2023-06-14T00:39:45;43.33;42.34;44.49;;
66459;Laerm;70605;52.550;4.730;2023-06-14T00:39:55;43.22;42.32;44.44;;
66459;Laerm;70605;52.550;4.730;2023-06-14T00:40:05;43.19;42.22;44.14;;
66459;Laerm;70605;52.550;4.730;2023-06-14T00:40:16;43.19;42.30;44.24;;
66459;Laerm;70605;52.550;4.730;2023-06-14T00:40:26;43.26;42.42;44.86;;
66459;Laerm;70605;52.550;4.730;2023-06-14T00:40:37;43.16;42.38;44.29;;
66459;Laerm;70605;52.550;4.730;2023-06-14T00:40:47;43.31;42.33;44.39;;
66459;Laerm;70605;52.550;4.730;2023-06-14T00:40:57;43.20;42.26;44.12;;
66459;Laerm;70605;52.550;4.730;2023-06-14T00:41:07;43.17;42.15;44.17;;
66459;Laerm;70605;52.550;4.730;2023-06-14T00:41:18;43.17;42.29;44.54;;
66459;Laerm;70605;52.550;4.730;2023-06-14T00:41:28;43.45;42.09;46.85;;
66459;Laerm;70605;52.550;4.730;2023-06-14T00:41:39;43.43;42.20;46.53;;
66459;Laerm;70605;52.550;4.730;2023-06-14T00:41:49;43.21;42.27;44.31;;
66459;Laerm;70605;52.550;4.730;2023-06-14T00:41:59;43.13;42.17;44.08;;
66459;Laerm;70605;52.550;4.730;2023-06-14T00:42:09;43.28;42.44;44.57;;
66459;Laerm;70605;52.550;4.730;2023-06-14T00:42:23;43.24;42.24;44.10;;
66459;Laerm;70605;52.550;4.730;2023-06-14T00:42:34;43.20;42.03;48.40;;
66459;Laerm;70605;52.550;4.730;2023-06-14T00:42:45;43.24;42.37;44.04;;
66459;Laerm;70605;52.550;4.730;2023-06-14T00:42:55;43.21;42.20;44.23;;
66459;Laerm;70605;52.550;4.730;2023-06-14T00:43:05;43.22;42.11;44.15;;
66459;Laerm;70605;52.550;4.730;2023-06-14T00:43:15;43.16;42.36;44.14;;
66459;Laerm;70605;52.550;4.730;2023-06-14T00:43:26;43.17;42.34;44.07;;
66459;Laerm;70605;52.550;4.730;2023-06-14T00:43:36;43.16;42.20;44.05;;
66459;Laerm;70605;52.550;4.730;2023-06-14T00:43:46;43.25;42.46;44.29;;
66459;Laerm;70605;52.550;4.730;2023-06-14T00:43:57;43.23;41.83;44.20;;
66459;Laerm;70605;52.550;4.730;2023-06-14T00:44:07;43.21;42.35;47.50;;
66459;Laerm;70605;52.550;4.730;2023-06-14T00:44:17;43.23;42.30;44.44;;
66459;Laerm;70605;52.550;4.730;2023-06-14T00:44:28;43.16;42.18;44.20;;
66459;Laerm;70605;52.550;4.730;2023-06-14T00:44:38;43.13;42.27;43.95;;
66459;Laerm;70605;52.550;4.730;2023-06-14T00:44:48;43.16;42.35;44.53;;
66459;Laerm;70605;52.550;4.730;2023-06-14T00:44:59;43.27;42.05;44.41;;
66459;Laerm;70605;52.550;4.730;2023-06-14T00:45:10;43.35;42.32;44.47;;
66459;Laerm;70605;52.550;4.730;2023-06-14T00:45:20;43.31;42.32;44.89;;
66459;Laerm;70605;52.550;4.730;2023-06-14T00:45:30;43.24;42.30;44.56;;
66459;Laerm;70605;52.550;4.730;2023-06-14T00:45:41;43.13;41.91;44.13;;
66459;Laerm;70605;52.550;4.730;2023-06-14T00:45:51;43.21;42.47;44.23;;
66459;Laerm;70605;52.550;4.730;2023-06-14T00:46:02;43.28;42.43;44.26;;
66459;Laerm;70605;52.550;4.730;2023-06-14T00:46:12;43.20;42.30;44.05;;
66459;Laerm;70605;52.550;4.730;2023-06-14T00:46:22;43.22;42.08;45.71;;
66459;Laerm;70605;52.550;4.730;2023-06-14T00:46:32;43.17;42.37;44.14;;
66459;Laerm;70605;52.550;4.730;2023-06-14T00:46:44;43.12;42.21;44.01;;
66459;Laerm;70605;52.550;4.730;2023-06-14T00:46:55;43.14;42.15;44.09;;
66459;Laerm;70605;52.550;4.730;2023-06-14T00:47:05;43.18;42.00;44.10;;
66459;Laerm;70605;52.550;4.730;2023-06-14T00:47:16;43.19;42.30;44.05;;
66459;Laerm;70605;52.550;4.730;2023-06-14T00:47:26;43.31;42.13;44.12;;
66459;Laerm;70605;52.550;4.730;2023-06-14T00:47:37;43.30;42.41;44.59;;
66459;Laerm;70605;52.550;4.730;2023-06-14T00:47:48;43.24;42.31;44.19;;
66459;Laerm;70605;52.550;4.730;2023-06-14T00:48:03;43.23;42.26;44.01;;
66459;Laerm;70605;52.550;4.730;2023-06-14T00:48:13;43.39;42.38;45.63;;
66459;Laerm;70605;52.550;4.730;2023-06-14T00:48:23;43.84;42.15;48.52;;
66459;Laerm;70605;52.550;4.730;2023-06-14T00:48:35;43.45;42.29;46.71;;
66459;Laerm;70605;52.550;4.730;2023-06-14T00:48:46;43.19;42.15;44.12;;
66459;Laerm;70605;52.550;4.730;2023-06-14T00:48:58;43.13;42.19;43.95;;
66459;Laerm;70605;52.550;4.730;2023-06-14T00:49:08;43.27;42.32;46.16;;
66459;Laerm;70605;52.550;4.730;2023-06-14T00:49:19;43.58;42.30;46.40;;
66459;Laerm;70605;52.550;4.730;2023-06-14T00:49:29;43.20;42.25;44.73;;
66459;Laerm;70605;52.550;4.730;2023-06-14T00:49:40;45.07;42.40;58.82;;
66459;Laerm;70605;52.550;4.730;2023-06-14T00:49:50;48.77;42.55;62.81;;
66459;Laerm;70605;52.550;4.730;2023-06-14T00:50:01;43.42;42.18;45.68;;
66459;Laerm;70605;52.550;4.730;2023-06-14T00:50:11;43.30;42.25;45.13;;
66459;Laerm;70605;52.550;4.730;2023-06-14T00:50:23;43.61;42.32;48.88;;
66459;Laerm;70605;52.550;4.730;2023-06-14T00:50:33;43.60;42.14;47.24;;
66459;Laerm;70605;52.550;4.730;2023-06-14T00:50:44;43.19;41.89;44.47;;
66459;Laerm;70605;52.550;4.730;2023-06-14T00:50:55;43.21;42.50;44.12;;
66459;Laerm;70605;52.550;4.730;2023-06-14T00:51:07;43.21;42.23;44.38;;
66459;Laerm;70605;52.550;4.730;2023-06-14T00:51:17;43.27;42.41;44.38;;
66459;Laerm;70605;52.550;4.730;2023-06-14T00:51:28;43.30;42.40;44.28;;
66459;Laerm;70605;52.550;4.730;2023-06-14T00:51:38;43.31;42.36;52.25;;
66459;Laerm;70605;52.550;4.730;2023-06-14T00:51:49;43.26;41.80;44.20;;
66459;Laerm;70605;52.550;4.730;2023-06-14T00:52:00;43.35;42.33;44.88;;
66459;Laerm;70605;52.550;4.730;2023-06-14T00:52:12;43.37;42.29;45.01;;
66459;Laerm;70605;52.550;4.730;2023-06-14T00:52:22;43.44;42.38;45.43;;
66459;Laerm;70605;52.550;4.730;2023-06-14T00:52:34;43.33;42.26;44.93;;
66459;Laerm;70605;52.550;4.730;2023-06-14T00:52:44;43.23;42.10;44.24;;
66459;Laerm;70605;52.550;4.730;2023-06-14T00:52:55;43.36;42.39;45.06;;
66459;Laerm;70605;52.550;4.730;2023-06-14T00:53:06;43.53;42.34;45.25;;
66459;Laerm;70605;52.550;4.730;2023-06-14T00:53:16;43.35;42.45;45.10;;
66459;Laerm;70605;52.550;4.730;2023-06-14T00:53:30;43.21;42.23;44.31;;
66459;Laerm;70605;52.550;4.730;2023-06-14T00:53:44;43.17;42.13;45.00;;
66459;Laerm;70605;52.550;4.730;2023-06-14T00:53:56;43.21;42.23;44.55;;
66459;Laerm;70605;52.550;4.730;2023-06-14T00:54:07;43.31;42.34;44.22;;
66459;Laerm;70605;52.550;4.730;2023-06-14T00:54:17;43.28;42.31;44.21;;
66459;Laerm;70605;52.550;4.730;2023-06-14T00:54:27;43.30;42.34;44.67;;
66459;Laerm;70605;52.550;4.730;2023-06-14T00:54:38;43.42;42.24;46.01;;
66459;Laerm;70605;52.550;4.730;2023-06-14T00:54:48;43.66;42.67;45.12;;
66459;Laerm;70605;52.550;4.730;2023-06-14T00:54:58;44.84;43.06;50.13;;
66459;Laerm;70605;52.550;4.730;2023-06-14T00:55:09;47.64;44.00;52.46;;
66459;Laerm;70605;52.550;4.730;2023-06-14T00:55:19;50.20;45.95;54.99;;
66459;Laerm;70605;52.550;4.730;2023-06-14T00:55:30;54.82;47.90;60.29;;
66459;Laerm;70605;52.550;4.730;2023-06-14T00:55:40;54.01;47.26;59.63;;
66459;Laerm;70605;52.550;4.730;2023-06-14T00:55:50;51.35;45.95;56.06;;
66459;Laerm;70605;52.550;4.730;2023-06-14T00:56:01;47.66;44.11;51.20;;
66459;Laerm;70605;52.550;4.730;2023-06-14T00:56:11;46.17;43.28;50.72;;
66459;Laerm;70605;52.550;4.730;2023-06-14T00:56:23;43.91;42.81;46.39;;
66459;Laerm;70605;52.550;4.730;2023-06-14T00:56:35;43.41;42.61;44.63;;
66459;Laerm;70605;52.550;4.730;2023-06-14T00:56:45;43.45;42.50;44.77;;
66459;Laerm;70605;52.550;4.730;2023-06-14T00:56:55;43.25;42.56;44.08;;
66459;Laerm;70605;52.550;4.730;2023-06-14T00:57:06;43.18;42.21;43.93;;
66459;Laerm;70605;52.550;4.730;2023-06-14T00:57:17;43.13;42.32;44.13;;
66459;Laerm;70605;52.550;4.730;2023-06-14T00:57:27;43.23;42.33;44.43;;
66459;Laerm;70605;52.550;4.730;2023-06-14T00:57:39;43.24;42.39;45.04;;
66459;Laerm;70605;52.550;4.730;2023-06-14T00:57:50;43.17;42.31;44.18;;
66459;Laerm;70605;52.550;4.730;2023-06-14T00:58:01;43.09;42.42;44.03;;
66459;Laerm;70605;52.550;4.730;2023-06-14T00:58:11;43.21;42.19;45.13;;
66459;Laerm;70605;52.550;4.730;2023-06-14T00:58:22;43.17;42.31;44.08;;
66459;Laerm;70605;52.550;4.730;2023-06-14T00:58:32;43.03;42.06;43.97;;
66459;Laerm;70605;52.550;4.730;2023-06-14T00:58:43;43.03;42.24;44.06;;
66459;Laerm;70605;52.550;4.730;2023-06-14T00:58:53;43.04;42.10;44.06;;
66459;Laerm;70605;52.550;4.730;2023-06-14T00:59:05;43.15;42.16;44.60;;
66459;Laerm;70605;52.550;4.730;2023-06-14T00:59:16;43.12;42.07;43.97;;
66459;Laerm;70605;52.550;4.730;2023-06-14T00:59:26;43.14;42.18;44.37;;
66459;Laerm;70605;52.550;4.730;2023-06-14T00:59:38;43.21;42.03;44.53;;
66459;Laerm;70605;52.550;4.730;2023-06-14T00:59:51;43.11;42.13;43.90;;
66459;Laerm;70605;52.550;4.730;2023-06-14T01:00:02;43.21;42.38;44.65;;
66459;Laerm;70605;52.550;4.730;2023-06-14T01:00:12;43.14;42.21;44.37;;
66459;Laerm;70605;52.550;4.730;2023-06-14T01:00:22;43.17;41.92;44.02;;